Time;durP1;ratioP1;P1;durP2;ratioP2;P2;SDS_P1;SDS_P2;PMS_P1;PMS_P2;Temp;Humidity;BMP_temperature;BMP_pressure;BME280_temperature;BME280_humidity;BME280_pressure;Samples;Min_cycle;Max_cycle;Signal;HPM_P1;HPM_P2
2021/10/10 00:00:45;;;;;;;29.25;15.73;;;8.10;84.30;;;;;;5072751;28;20393;-37
2021/10/10 00:03:11;;;;;;;31.67;15.45;;;8.10;84.40;;;;;;5073004;28;20106;-36
2021/10/10 00:05:36;;;;;;;27.77;15.70;;;8.30;83.90;;;;;;5072456;28;20048;-37
2021/10/10 00:08:02;;;;;;;26.95;14.95;;;8.20;84.20;;;;;;5073038;28;20128;-37
2021/10/10 00:10:28;;;;;;;27.38;15.73;;;8.00;84.30;;;;;;5072413;28;20103;-37
2021/10/10 00:12:53;;;;;;;26.20;15.90;;;7.90;84.70;;;;;;5054281;28;20039;-37
2021/10/10 00:15:19;;;;;;;24.13;15.35;;;7.90;84.90;;;;;;5072328;28;20025;-37
2021/10/10 00:17:45;;;;;;;25.00;14.48;;;7.90;85.00;;;;;;5072559;28;20033;-37
2021/10/10 00:20:12;;;;;;;24.05;14.55;;;7.90;84.90;;;;;;5072261;28;20126;-38
2021/10/10 00:22:37;;;;;;;24.10;15.13;;;7.80;85.00;;;;;;5072173;28;20025;-38
2021/10/10 00:25:05;;;;;;;25.42;15.43;;;7.80;85.30;;;;;;5072193;28;20127;-37
2021/10/10 00:27:30;;;;;;;25.52;15.60;;;7.90;85.00;;;;;;5054599;28;20380;-37
2021/10/10 00:29:56;;;;;;;28.77;17.42;;;7.80;85.30;;;;;;5072911;28;20025;-38
2021/10/10 00:32:22;;;;;;;23.73;16.02;;;7.80;85.50;;;;;;5071973;28;20029;-37
2021/10/10 00:34:47;;;;;;;25.00;15.65;;;7.70;85.60;;;;;;5072487;28;20028;-37
2021/10/10 00:37:13;;;;;;;24.55;15.25;;;7.70;85.80;;;;;;5073284;28;20024;-37
2021/10/10 00:39:39;;;;;;;23.15;14.98;;;7.80;85.40;;;;;;5075670;28;20147;-38
2021/10/10 00:42:06;;;;;;;24.88;15.68;;;7.70;85.50;;;;;;5075491;28;20036;-37
2021/10/10 00:44:33;;;;;;;22.25;14.55;;;7.70;85.60;;;;;;5057573;28;20062;-37
2021/10/10 00:46:59;;;;;;;28.20;16.08;;;7.60;85.70;;;;;;5075484;28;20025;-38
2021/10/10 00:49:25;;;;;;;26.33;14.68;;;7.60;85.90;;;;;;5075518;28;20113;-38
2021/10/10 00:51:51;;;;;;;26.63;16.00;;;7.50;86.10;;;;;;5075314;28;20070;-37
2021/10/10 00:54:18;;;;;;;25.23;16.65;;;7.50;86.20;;;;;;5075337;28;20475;-38
2021/10/10 00:56:45;;;;;;;31.27;15.98;;;7.50;86.50;;;;;;5057254;28;20030;-36
2021/10/10 00:59:14;;;;;;;26.35;15.82;;;7.40;86.60;;;;;;5075177;28;20020;-38
2021/10/10 01:01:40;;;;;;;25.27;16.05;;;7.40;86.70;;;;;;5075270;28;20414;-37
2021/10/10 01:04:06;;;;;;;28.33;15.48;;;7.40;86.70;;;;;;5074775;28;20032;-37
2021/10/10 01:06:32;;;;;;;29.58;17.40;;;7.30;86.70;;;;;;5057996;28;20025;-36
2021/10/10 01:08:58;;;;;;;32.72;15.43;;;7.30;87.00;;;;;;5057554;28;20029;-37
2021/10/10 01:11:27;;;;;;;25.25;15.32;;;7.30;87.00;;;;;;5075359;28;20107;-37
2021/10/10 01:13:53;;;;;;;23.45;14.30;;;7.20;87.20;;;;;;5074694;28;20021;-37
2021/10/10 01:16:19;;;;;;;23.63;14.38;;;7.20;87.30;;;;;;5074762;28;20021;-37
2021/10/10 01:18:45;;;;;;;23.20;15.52;;;7.10;87.40;;;;;;5056758;28;20211;-37
2021/10/10 01:21:11;;;;;;;26.60;14.75;;;7.10;87.60;;;;;;5074725;28;20434;-38
2021/10/10 01:23:36;;;;;;;28.63;15.20;;;7.00;87.60;;;;;;5074820;28;20099;-37
2021/10/10 01:26:02;;;;;;;26.25;16.73;;;7.00;87.80;;;;;;5074697;28;20028;-37
2021/10/10 01:28:28;;;;;;;28.63;16.45;;;6.90;87.60;;;;;;5074616;28;20123;-38
2021/10/10 01:30:54;;;;;;;24.77;14.73;;;6.80;87.70;;;;;;5056475;28;20143;-37
2021/10/10 01:33:19;;;;;;;28.38;14.80;;;6.80;88.00;;;;;;5074495;28;20047;-37
2021/10/10 01:35:45;;;;;;;30.10;15.93;;;6.80;88.00;;;;;;5074809;28;20052;-37
2021/10/10 01:38:15;;;;;;;26.02;15.57;;;6.70;88.10;;;;;;5074548;28;20021;-37
2021/10/10 01:40:44;;;;;;;25.90;17.15;;;6.70;88.10;;;;;;5074707;28;20032;-38
2021/10/10 01:43:10;;;;;;;29.38;16.35;;;6.70;88.20;;;;;;5074310;28;20032;-38
2021/10/10 01:45:35;;;;;;;25.80;16.42;;;6.70;88.20;;;;;;5074362;28;20032;-37
2021/10/10 01:48:01;;;;;;;26.08;15.60;;;6.60;88.30;;;;;;5074105;28;20028;-38
2021/10/10 01:50:27;;;;;;;26.63;15.95;;;6.60;88.30;;;;;;5074664;28;20077;-37
2021/10/10 01:52:52;;;;;;;41.95;17.42;;;6.60;88.20;;;;;;5074178;28;20078;-37
2021/10/10 01:55:19;;;;;;;28.50;14.82;;;6.50;88.30;;;;;;5074247;28;20020;-37
2021/10/10 01:57:45;;;;;;;23.80;16.20;;;6.50;88.40;;;;;;5056549;28;20029;-37
2021/10/10 02:00:12;;;;;;;30.73;16.13;;;6.50;88.50;;;;;;5074386;28;20028;-37
2021/10/10 02:02:38;;;;;;;27.48;15.15;;;6.40;88.60;;;;;;5074042;28;20037;-37
2021/10/10 02:05:05;;;;;;;21.13;14.82;;;6.40;88.60;;;;;;5074010;28;20131;-37
2021/10/10 02:07:31;;;;;;;27.33;15.98;;;6.50;88.70;;;;;;5073883;28;20048;-37
2021/10/10 02:09:56;;;;;;;23.67;15.48;;;6.60;88.30;;;;;;5073960;28;20103;-37
2021/10/10 02:12:22;;;;;;;28.05;16.52;;;6.50;87.80;;;;;;5073990;28;20112;-37
2021/10/10 02:14:48;;;;;;;27.50;16.75;;;6.40;88.20;;;;;;5074041;28;20025;-37
2021/10/10 02:17:13;;;;;;;29.77;16.70;;;6.40;88.30;;;;;;5073965;28;20508;-37
2021/10/10 02:19:39;;;;;;;25.75;15.30;;;6.30;88.30;;;;;;5073672;28;20020;-37
2021/10/10 02:22:05;;;;;;;28.73;15.95;;;6.30;88.60;;;;;;5073736;28;20388;-37
2021/10/10 02:24:30;;;;;;;28.70;16.55;;;6.20;88.90;;;;;;5073885;28;20078;-38
2021/10/10 02:26:56;;;;;;;23.63;16.20;;;6.20;89.10;;;;;;5073597;28;20031;-37
2021/10/10 02:29:22;;;;;;;30.92;17.27;;;6.20;89.10;;;;;;5073459;28;20357;-37
2021/10/10 02:31:48;;;;;;;32.53;16.33;;;6.20;89.10;;;;;;5073341;28;20028;-37
2021/10/10 02:34:15;;;;;;;25.88;16.65;;;6.10;89.00;;;;;;5073418;28;20086;-38
2021/10/10 02:36:42;;;;;;;28.60;16.15;;;6.30;89.10;;;;;;5073411;28;20020;-37
2021/10/10 02:39:09;;;;;;;23.85;15.13;;;6.30;88.60;;;;;;5073562;28;20032;-37
2021/10/10 02:41:35;;;;;;;25.02;15.95;;;6.30;88.30;;;;;;5073619;28;20419;-37
2021/10/10 02:44:01;;;;;;;25.73;15.32;;;6.20;88.40;;;;;;5073417;28;20370;-37
2021/10/10 02:46:27;;;;;;;26.33;15.38;;;6.30;88.70;;;;;;5073754;28;20028;-37
2021/10/10 02:48:53;;;;;;;29.98;16.58;;;6.20;88.40;;;;;;5073836;28;20110;-37
2021/10/10 02:51:18;;;;;;;26.65;15.80;;;6.10;88.50;;;;;;5073550;28;20482;-38
2021/10/10 02:53:44;;;;;;;25.73;15.77;;;6.00;88.80;;;;;;5073542;28;20031;-38
2021/10/10 02:56:09;;;;;;;23.83;15.88;;;6.00;88.90;;;;;;5073474;28;20452;-37
2021/10/10 02:58:35;;;;;;;25.83;15.13;;;6.00;88.90;;;;;;5073305;28;20029;-37
2021/10/10 03:01:01;;;;;;;26.80;16.65;;;6.00;89.20;;;;;;5072447;28;20024;-37
2021/10/10 03:03:27;;;;;;;23.75;15.63;;;6.00;89.10;;;;;;5073752;28;20373;-37
2021/10/10 03:05:52;;;;;;;28.33;17.05;;;6.00;89.10;;;;;;5073016;28;20055;-37
2021/10/10 03:08:18;;;;;;;27.95;18.08;;;6.00;89.10;;;;;;5072976;28;20032;-37
2021/10/10 03:10:44;;;;;;;32.95;18.27;;;6.00;89.10;;;;;;5072902;28;20024;-37
2021/10/10 03:13:10;;;;;;;32.40;17.27;;;6.00;89.20;;;;;;5072988;28;20111;-37
2021/10/10 03:15:36;;;;;;;29.13;17.20;;;6.00;89.10;;;;;;5073177;28;20075;-37
2021/10/10 03:18:02;;;;;;;30.05;16.70;;;6.00;89.20;;;;;;5072920;28;20025;-37
2021/10/10 03:20:28;;;;;;;25.38;16.58;;;6.00;89.30;;;;;;5073140;28;20372;-37
2021/10/10 03:22:53;;;;;;;26.05;16.35;;;6.00;89.30;;;;;;5072900;28;20413;-37
2021/10/10 03:25:19;;;;;;;27.02;17.58;;;5.90;89.40;;;;;;5072851;28;20063;-37
2021/10/10 03:27:45;;;;;;;30.15;17.70;;;5.90;89.40;;;;;;5073374;28;20067;-38
2021/10/10 03:30:10;;;;;;;29.55;18.20;;;5.80;89.50;;;;;;5072824;28;20120;-37
2021/10/10 03:32:36;;;;;;;26.77;16.50;;;5.90;89.50;;;;;;5072787;28;20032;-38
2021/10/10 03:35:03;;;;;;;26.20;16.95;;;5.80;89.60;;;;;;5073297;28;20360;-38
2021/10/10 03:37:29;;;;;;;28.67;17.20;;;5.80;89.60;;;;;;5072631;28;20032;-39
2021/10/10 03:39:56;;;;;;;31.10;17.08;;;5.80;89.70;;;;;;5072648;28;20025;-36
2021/10/10 03:42:22;;;;;;;30.73;17.77;;;5.80;89.80;;;;;;5072591;28;20052;-37
2021/10/10 03:44:48;;;;;;;34.80;17.60;;;5.80;89.80;;;;;;5072858;28;20180;-37
2021/10/10 03:47:15;;;;;;;27.20;16.92;;;5.80;89.80;;;;;;5072870;28;20107;-37
2021/10/10 03:49:41;;;;;;;27.92;17.63;;;5.80;89.90;;;;;;5072545;28;20031;-37
2021/10/10 03:52:08;;;;;;;27.73;16.88;;;5.80;89.90;;;;;;5054915;28;20495;-37
2021/10/10 03:57:20;;;;;;;26.00;15.85;;;5.70;89.80;;;;;;5072861;28;20028;-37
2021/10/10 03:59:48;;;;;;;28.40;16.08;;;5.80;89.90;;;;;;5054556;28;20028;-37
2021/10/10 04:02:14;;;;;;;22.98;15.73;;;5.70;89.80;;;;;;5072461;28;20039;-37
2021/10/10 04:04:40;;;;;;;27.00;16.38;;;5.70;89.90;;;;;;5048976;28;20045;-37
2021/10/10 04:07:06;;;;;;;33.63;18.80;;;5.70;90.00;;;;;;5052500;28;20039;-37
2021/10/10 04:09:31;;;;;;;30.10;17.48;;;5.60;89.90;;;;;;5052737;28;20176;-37
2021/10/10 04:11:57;;;;;;;36.50;18.60;;;5.60;90.00;;;;;;5055052;28;20433;-37
2021/10/10 04:14:23;;;;;;;29.65;17.77;;;5.60;90.20;;;;;;5056191;28;20377;-37
2021/10/10 04:16:48;;;;;;;25.48;17.05;;;5.60;90.10;;;;;;5038240;28;20044;-37
2021/10/10 04:19:14;;;;;;;26.23;15.88;;;5.60;90.00;;;;;;5038211;28;20021;-37
2021/10/10 04:21:39;;;;;;;31.00;18.58;;;5.60;90.00;;;;;;5056043;28;20017;-37
2021/10/10 04:24:05;;;;;;;30.60;18.15;;;5.60;90.10;;;;;;5056206;28;20029;-37
2021/10/10 04:26:31;;;;;;;27.77;17.60;;;5.60;90.10;;;;;;5056347;28;20029;-37
2021/10/10 04:28:56;;;;;;;30.40;17.40;;;5.50;90.10;;;;;;5055889;28;20036;-37
2021/10/10 04:31:22;;;;;;;28.27;17.20;;;5.50;90.30;;;;;;5056212;28;20466;-37
2021/10/10 04:33:47;;;;;;;27.60;17.17;;;5.50;90.30;;;;;;5055749;28;20021;-36
2021/10/10 04:36:13;;;;;;;32.85;17.23;;;5.50;90.30;;;;;;5055692;28;20024;-37
2021/10/10 04:38:38;;;;;;;23.85;16.17;;;5.50;90.30;;;;;;5055676;28;20358;-37
2021/10/10 04:41:04;;;;;;;34.33;18.67;;;5.50;90.30;;;;;;5055613;28;20028;-37
2021/10/10 04:43:30;;;;;;;23.98;16.10;;;5.50;90.30;;;;;;5055853;28;20033;-38
2021/10/10 04:45:55;;;;;;;29.02;17.45;;;5.40;90.20;;;;;;5055584;28;20028;-38
2021/10/10 04:48:21;;;;;;;32.80;17.90;;;5.40;90.30;;;;;;5055523;28;20420;-37
2021/10/10 04:50:47;;;;;;;34.35;17.85;;;5.50;90.20;;;;;;5055249;28;20043;-37
2021/10/10 04:53:12;;;;;;;31.77;17.15;;;5.50;90.10;;;;;;5055754;28;20025;-37
2021/10/10 04:55:39;;;;;;;27.30;15.98;;;5.50;89.90;;;;;;5055613;28;20017;-37
2021/10/10 04:58:04;;;;;;;25.92;16.88;;;5.50;89.90;;;;;;5055280;28;20418;-37
2021/10/10 05:00:30;;;;;;;27.60;17.23;;;5.50;89.90;;;;;;5055110;28;20105;-37
2021/10/10 05:02:55;;;;;;;26.60;17.10;;;5.40;90.00;;;;;;5055365;28;20047;-37
2021/10/10 05:05:21;;;;;;;32.60;16.50;;;5.40;90.10;;;;;;5066178;28;20405;-37
2021/10/10 05:07:47;;;;;;;23.75;15.60;;;5.50;90.00;;;;;;5075173;28;20336;-38
2021/10/10 05:10:13;;;;;;;28.17;15.13;;;5.50;90.00;;;;;;5075138;28;20456;-37
2021/10/10 05:12:38;;;;;;;25.55;16.20;;;5.50;90.10;;;;;;5075257;28;20473;-37
2021/10/10 05:15:07;;;;;;;28.42;17.00;;;5.50;89.90;;;;;;5075280;28;20092;-37
2021/10/10 05:17:33;;;;;;;31.45;16.80;;;5.50;89.90;;;;;;5075197;28;20469;-37
2021/10/10 05:19:59;;;;;;;29.45;16.17;;;5.60;89.90;;;;;;5075096;28;20031;-37
2021/10/10 05:22:25;;;;;;;29.00;16.92;;;5.50;89.80;;;;;;5056475;28;20029;-37
2021/10/10 05:24:51;;;;;;;24.65;15.05;;;5.50;89.90;;;;;;5074849;28;20099;-37
2021/10/10 05:27:17;;;;;;;36.42;17.33;;;5.50;89.90;;;;;;5075151;28;20051;-37
2021/10/10 05:29:42;;;;;;;26.50;16.08;;;5.50;89.90;;;;;;5074784;28;20400;-37
2021/10/10 05:32:08;;;;;;;26.67;15.50;;;5.50;89.80;;;;;;5056580;28;20107;-37
2021/10/10 05:34:34;;;;;;;26.25;14.88;;;5.50;89.80;;;;;;5074871;28;20432;-37
2021/10/10 05:37:00;;;;;;;33.85;15.35;;;5.50;89.70;;;;;;5074448;28;20020;-37
2021/10/10 05:39:25;;;;;;;30.55;16.67;;;5.50;89.70;;;;;;5056600;28;20380;-38
2021/10/10 05:41:51;;;;;;;24.98;15.35;;;5.50;89.70;;;;;;5074761;28;20024;-37
2021/10/10 05:44:17;;;;;;;33.28;18.02;;;5.50;89.70;;;;;;5074656;28;20101;-37
2021/10/10 05:46:42;;;;;;;27.27;15.18;;;5.50;89.80;;;;;;5074422;28;20473;-37
2021/10/10 05:49:08;;;;;;;28.30;16.30;;;5.60;89.70;;;;;;5074271;28;20365;-37
2021/10/10 05:51:34;;;;;;;24.30;16.10;;;5.50;89.60;;;;;;5074401;28;20040;-37
2021/10/10 05:54:00;;;;;;;26.10;15.30;;;5.50;89.60;;;;;;5074232;28;20023;-37
2021/10/10 05:56:26;;;;;;;28.88;15.82;;;5.50;89.60;;;;;;5074451;28;20029;-37
2021/10/10 05:59:00;;;;;;;27.05;15.32;;;5.60;89.60;;;;;;5074031;28;20077;-37
2021/10/10 06:01:26;;;;;;;25.42;14.07;;;5.60;89.50;;;;;;5074426;28;20027;-38
2021/10/10 06:03:52;;;;;;;25.42;15.45;;;5.60;89.50;;;;;;5073836;28;20105;-38
2021/10/10 06:06:17;;;;;;;25.63;14.98;;;5.60;89.50;;;;;;5074145;28;20044;-37
2021/10/10 06:08:43;;;;;;;23.77;15.40;;;5.70;89.50;;;;;;5074211;28;20028;-37
2021/10/10 06:11:10;;;;;;;22.88;14.38;;;5.70;89.30;;;;;;5073804;28;20410;-37
2021/10/10 06:13:37;;;;;;;21.27;13.77;;;5.70;89.40;;;;;;5074085;28;20052;-38
2021/10/10 06:16:05;;;;;;;25.88;15.52;;;5.80;89.30;;;;;;5073961;28;20111;-37
2021/10/10 06:18:30;;;;;;;23.80;14.38;;;5.80;89.20;;;;;;5073659;28;20016;-37
2021/10/10 06:20:56;;;;;;;24.45;16.17;;;5.80;89.20;;;;;;5073676;28;20108;-37
2021/10/10 06:23:22;;;;;;;27.83;17.42;;;5.80;89.00;;;;;;5073942;28;20056;-37
2021/10/10 06:25:48;;;;;;;22.63;14.88;;;5.90;88.90;;;;;;5073886;28;20524;-37
2021/10/10 06:28:13;;;;;;;23.95;13.82;;;5.90;88.90;;;;;;5073827;28;20021;-37
2021/10/10 06:30:39;;;;;;;22.98;14.07;;;5.90;88.80;;;;;;5073555;28;20496;-37
2021/10/10 06:33:05;;;;;;;24.17;15.70;;;6.00;88.80;;;;;;5073674;28;20032;-37
2021/10/10 06:35:30;;;;;;;27.38;14.82;;;6.10;88.60;;;;;;5073268;28;20361;-37
2021/10/10 06:37:56;;;;;;;22.55;14.95;;;6.10;88.60;;;;;;5073330;28;20024;-37
2021/10/10 06:40:22;;;;;;;23.75;15.57;;;6.20;88.50;;;;;;5073651;28;20487;-37
2021/10/10 06:42:47;;;;;;;20.50;13.90;;;6.30;87.80;;;;;;5073375;28;20028;-37
2021/10/10 06:45:13;;;;;;;24.05;14.45;;;6.40;87.50;;;;;;5073236;28;20101;-37
2021/10/10 06:47:40;;;;;;;21.52;13.77;;;6.40;87.20;;;;;;5073313;28;20048;-37
2021/10/10 06:50:06;;;;;;;22.77;13.60;;;6.40;87.20;;;;;;5073445;28;20093;-37
2021/10/10 06:52:32;;;;;;;23.90;15.13;;;6.40;87.30;;;;;;5073074;28;20047;-37
2021/10/10 06:54:57;;;;;;;23.13;14.63;;;6.60;86.90;;;;;;5073009;28;20029;-37
2021/10/10 06:57:25;;;;;;;33.78;15.98;;;6.70;86.40;;;;;;5055128;28;20020;-38
2021/10/10 06:59:53;;;;;;;25.80;14.00;;;6.80;86.20;;;;;;5055063;28;20075;-37
2021/10/10 07:02:19;;;;;;;23.90;14.52;;;6.80;85.90;;;;;;5073317;28;20021;-37
2021/10/10 07:04:45;;;;;;;22.42;13.93;;;6.80;85.70;;;;;;5073580;28;20049;-38
2021/10/10 07:07:11;;;;;;;22.00;14.48;;;6.80;85.70;;;;;;5073471;28;20035;-38
2021/10/10 07:09:37;;;;;;;23.67;13.98;;;7.00;85.40;;;;;;5072972;28;20426;-37
2021/10/10 07:12:03;;;;;;;24.08;15.13;;;7.00;85.50;;;;;;5054746;28;20136;-38
2021/10/10 07:14:30;;;;;;;24.73;15.25;;;7.10;85.70;;;;;;5072970;28;20055;-37
2021/10/10 07:16:57;;;;;;;22.70;15.05;;;7.20;85.40;;;;;;5072759;28;20030;-37
2021/10/10 07:19:25;;;;;;;22.73;14.57;;;7.30;85.20;;;;;;5073439;28;20134;-37
2021/10/10 07:21:59;;;;;;;24.40;15.88;;;7.40;84.70;;;;;;5073570;28;20034;-37
2021/10/10 07:27:09;;;;;;;27.33;14.30;;;7.80;83.70;;;;;;5057605;28;20178;-36
2021/10/10 07:29:35;;;;;;;23.77;13.82;;;7.80;83.30;;;;;;5072784;28;20107;-37
2021/10/10 07:32:01;;;;;;;20.58;13.02;;;7.90;83.40;;;;;;5072824;28;20033;-36
2021/10/10 07:34:27;;;;;;;22.08;13.43;;;8.10;82.50;;;;;;5072871;28;20069;-37
2021/10/10 07:36:52;;;;;;;25.38;14.43;;;8.20;82.20;;;;;;5072843;28;20490;-38
2021/10/10 07:39:19;;;;;;;22.80;14.40;;;8.40;81.80;;;;;;5072722;28;20017;-37
2021/10/10 07:41:45;;;;;;;23.15;13.10;;;8.60;81.30;;;;;;5056588;28;20032;-37
2021/10/10 07:44:12;;;;;;;20.00;12.68;;;8.90;80.30;;;;;;5072473;28;20040;-37
2021/10/10 07:46:42;;;;;;;21.73;13.38;;;9.00;79.70;;;;;;5074855;28;20115;-39
2021/10/10 07:49:08;;;;;;;22.13;12.90;;;9.10;79.30;;;;;;5076736;28;20104;-35
2021/10/10 07:51:38;;;;;;;19.35;11.77;;;9.30;79.00;;;;;;5076825;28;20131;-36
2021/10/10 07:54:04;;;;;;;19.05;13.15;;;9.40;78.20;;;;;;5076944;28;20021;-37
2021/10/10 07:56:30;;;;;;;16.90;11.48;;;9.60;77.80;;;;;;5058824;28;20036;-37
2021/10/10 07:58:56;;;;;;;24.27;12.82;;;9.70;77.00;;;;;;5076946;28;20033;-37
2021/10/10 08:01:21;;;;;;;19.92;11.02;;;9.80;76.60;;;;;;5076957;28;20445;-38
2021/10/10 08:03:47;;;;;;;22.20;12.30;;;10.10;76.20;;;;;;5058840;28;20032;-38
2021/10/10 08:06:13;;;;;;;17.30;11.65;;;10.80;73.50;;;;;;5076679;28;20048;-37
2021/10/10 08:08:39;;;;;;;20.00;11.50;;;11.50;71.00;;;;;;5076721;28;20453;-37
2021/10/10 08:11:05;;;;;;;15.70;9.95;;;13.00;64.80;;;;;;5076267;28;20056;-38
2021/10/10 08:13:30;;;;;;;17.27;10.43;;;13.40;63.90;;;;;;5076583;28;20127;-38
2021/10/10 08:15:56;;;;;;;16.35;10.02;;;13.50;62.00;;;;;;5076433;28;20052;-38
2021/10/10 08:18:22;;;;;;;15.45;10.57;;;13.10;62.80;;;;;;5076011;28;20039;-38
2021/10/10 08:20:47;;;;;;;16.08;9.90;;;13.30;62.60;;;;;;5076009;28;20021;-38
2021/10/10 08:23:13;;;;;;;14.30;9.88;;;13.60;61.40;;;;;;5076040;28;20054;-38
2021/10/10 08:25:38;;;;;;;18.58;11.00;;;13.60;61.40;;;;;;5076306;28;20028;-38
2021/10/10 08:28:04;;;;;;;21.38;12.50;;;13.80;61.20;;;;;;5075919;28;20042;-38
2021/10/10 08:30:31;;;;;;;16.52;9.90;;;14.20;60.20;;;;;;5075881;28;20033;-38
2021/10/10 08:32:57;;;;;;;14.82;10.13;;;13.40;62.00;;;;;;5057726;28;20028;-38
2021/10/10 08:35:22;;;;;;;19.48;11.60;;;14.20;60.00;;;;;;5075754;28;20356;-38
2021/10/10 08:37:49;;;;;;;17.25;9.90;;;14.40;59.30;;;;;;5075809;28;20449;-37
2021/10/10 08:40:15;;;;;;;21.02;11.23;;;14.80;58.10;;;;;;5057785;28;20545;-37
2021/10/10 08:42:47;;;;;;;16.10;9.88;;;15.00;57.20;;;;;;5075836;28;20024;-38
2021/10/10 08:45:19;;;;;;;16.48;9.88;;;14.80;55.50;;;;;;5075325;28;20024;-38
2021/10/10 08:47:45;;;;;;;15.60;9.10;;;14.40;58.20;;;;;;5075793;28;20059;-38
2021/10/10 08:50:22;;;;;;;16.90;9.77;;;13.50;60.70;;;;;;5075375;28;20063;-37
2021/10/10 08:52:55;;;;;;;19.50;10.68;;;13.80;60.70;;;;;;5075209;28;20377;-38
2021/10/10 08:55:21;;;;;;;16.85;11.05;;;14.50;59.30;;;;;;5075583;28;20099;-37
2021/10/10 08:57:47;;;;;;;16.17;8.88;;;15.20;56.20;;;;;;5056190;28;20067;-37
2021/10/10 09:00:22;;;;;;;18.08;10.57;;;15.30;55.30;;;;;;5040434;28;20024;-38
2021/10/10 09:02:48;;;;;;;16.95;10.32;;;15.60;54.30;;;;;;5075279;28;20385;-38
2021/10/10 09:05:15;;;;;;;14.57;9.55;;;15.60;53.50;;;;;;5074846;28;20048;-38
2021/10/10 09:07:41;;;;;;;14.43;10.05;;;15.30;54.60;;;;;;5075724;28;20025;-38
2021/10/10 09:10:28;;;;;;;15.50;9.88;;;15.90;53.20;;;;;;5075430;28;20384;-37
2021/10/10 09:13:08;;;;;;;17.20;11.10;;;16.90;51.40;;;;;;5075414;28;20035;-37
2021/10/10 09:15:35;;;;;;;17.80;9.38;;;17.30;50.10;;;;;;5075444;28;20054;-37
2021/10/10 09:18:03;;;;;;;15.52;10.02;;;17.20;49.90;;;;;;5057349;28;20017;-39
2021/10/10 09:20:31;;;;;;;16.63;11.13;;;16.30;52.80;;;;;;5057080;28;20361;-37
2021/10/10 09:22:58;;;;;;;19.73;12.15;;;16.30;53.00;;;;;;5074897;28;20024;-37
2021/10/10 09:25:24;;;;;;;16.38;9.38;;;17.50;50.30;;;;;;5075427;28;20549;-39
2021/10/10 09:27:50;;;;;;;15.27;9.90;;;17.50;49.90;;;;;;5075255;28;20028;-37
2021/10/10 09:30:20;;;;;;;16.25;10.38;;;17.50;50.70;;;;;;5074878;28;20113;-37
2021/10/10 09:32:45;;;;;;;17.10;12.05;;;17.80;49.00;;;;;;5074877;28;20028;-37
2021/10/10 09:35:38;;;;;;;16.65;10.27;;;17.80;49.50;;;;;;5056513;28;20035;-37
2021/10/10 09:38:15;;;;;;;16.17;10.85;;;16.80;52.60;;;;;;5070699;28;20046;-37
2021/10/10 09:40:49;;;;;;;15.75;10.27;;;17.20;52.30;;;;;;5075209;28;20028;-37
2021/10/10 09:43:15;;;;;;;16.85;10.38;;;16.70;54.30;;;;;;5074745;28;20480;-37
2021/10/10 09:45:59;;;;;;;20.60;10.60;;;17.50;51.50;;;;;;5074821;28;20028;-38
2021/10/10 09:48:30;;;;;;;17.63;10.82;;;17.80;49.10;;;;;;5074742;28;20074;-38
2021/10/10 09:50:56;;;;;;;21.55;11.80;;;17.80;49.80;;;;;;5056326;28;20032;-37
2021/10/10 09:53:33;;;;;;;16.98;10.48;;;17.50;51.10;;;;;;5056452;28;20111;-37
2021/10/10 09:56:07;;;;;;;19.42;10.82;;;17.00;52.70;;;;;;5074988;28;20016;-38
2021/10/10 09:58:38;;;;;;;19.83;11.52;;;18.10;49.80;;;;;;5075084;28;20499;-37
2021/10/10 10:01:15;;;;;;;17.95;10.95;;;17.80;50.60;;;;;;5074429;28;20468;-38
2021/10/10 10:03:58;;;;;;;16.95;11.27;;;18.30;49.40;;;;;;5073943;28;20021;-38
2021/10/10 10:06:27;;;;;;;19.70;11.52;;;18.40;48.90;;;;;;5073813;28;20045;-38
2021/10/10 10:08:55;;;;;;;16.40;11.15;;;19.00;47.50;;;;;;5073489;28;20021;-38
2021/10/10 10:11:22;;;;;;;20.85;12.13;;;17.30;51.30;;;;;;5073581;28;20035;-38
2021/10/10 10:13:50;;;;;;;19.70;11.93;;;16.80;54.60;;;;;;5073617;28;20031;-38
2021/10/10 10:16:17;;;;;;;21.88;12.95;;;17.80;51.40;;;;;;5074210;28;20070;-38
2021/10/10 10:18:43;;;;;;;18.52;12.90;;;18.60;49.00;;;;;;5073508;28;20066;-37
2021/10/10 10:21:10;;;;;;;19.23;12.88;;;18.90;48.70;;;;;;5073449;28;20456;-37
2021/10/10 10:23:37;;;;;;;16.65;12.15;;;18.80;48.50;;;;;;5073460;28;20446;-37
2021/10/10 10:26:03;;;;;;;18.13;13.98;;;19.30;47.40;;;;;;5073470;28;20028;-39
2021/10/10 10:28:32;;;;;;;21.35;13.40;;;19.80;46.30;;;;;;5073248;28;20033;-37
2021/10/10 10:31:00;;;;;;;16.75;11.73;;;19.30;47.30;;;;;;5073340;28;20095;-37
2021/10/10 10:33:32;;;;;;;21.70;12.63;;;19.80;46.30;;;;;;5072928;28;20024;-37
2021/10/10 10:35:58;;;;;;;13.57;9.95;;;19.30;47.30;;;;;;5073505;28;20384;-37
2021/10/10 10:38:43;;;;;;;19.42;12.35;;;18.70;48.60;;;;;;5073435;28;20028;-37
2021/10/10 10:41:50;;;;;;;19.05;11.57;;;19.10;48.10;;;;;;5075539;28;20024;-38
2021/10/10 10:44:36;;;;;;;21.83;12.68;;;17.50;52.20;;;;;;5073511;28;20476;-37
2021/10/10 10:47:13;;;;;;;22.80;13.00;;;17.30;53.50;;;;;;5055915;28;20498;-38
2021/10/10 10:49:54;;;;;;;18.95;12.38;;;17.50;52.90;;;;;;5055118;28;20058;-37
2021/10/10 10:52:29;;;;;;;17.83;11.80;;;18.30;50.90;;;;;;5072832;28;20337;-37
2021/10/10 10:55:28;;;;;;;20.42;11.35;;;18.80;50.20;;;;;;5074599;28;20047;-38
2021/10/10 10:58:15;;;;;;;18.33;11.15;;;18.80;49.50;;;;;;5073364;28;20017;-38
2021/10/10 11:00:48;;;;;;;19.75;12.00;;;18.20;50.70;;;;;;5055175;28;20028;-49
2021/10/10 11:03:18;;;;;;;20.30;12.32;;;17.70;52.20;;;;;;5073245;28;20028;-48
2021/10/10 11:05:49;;;;;;;16.45;11.00;;;17.80;52.60;;;;;;5072939;28;20125;-49
2021/10/10 11:08:17;;;;;;;21.10;12.05;;;18.00;51.90;;;;;;5073779;28;20471;-50
2021/10/10 11:11:21;;;;;;;21.73;11.90;;;18.30;51.30;;;;;;5073272;28;20035;-49
2021/10/10 11:13:55;;;;;;;21.17;12.38;;;18.80;49.90;;;;;;5072651;28;20028;-49
2021/10/10 11:16:28;;;;;;;17.30;11.85;;;18.70;50.00;;;;;;5055567;28;20056;-48
2021/10/10 11:18:54;;;;;;;22.40;11.27;;;19.00;49.90;;;;;;5072985;28;20100;-49
2021/10/10 11:21:26;;;;;;;21.15;12.25;;;19.50;48.10;;;;;;5072611;28;20107;-46
2021/10/10 11:23:57;;;;;;;25.70;12.52;;;19.80;48.00;;;;;;5055069;28;20020;-48
2021/10/10 11:26:25;;;;;;;28.08;11.90;;;19.50;47.60;;;;;;5072518;28;20021;-49
2021/10/10 11:28:59;;;;;;;18.13;10.20;;;18.30;50.00;;;;;;5072850;28;20017;-49
2021/10/10 11:31:28;;;;;;;17.42;10.52;;;17.90;51.00;;;;;;5072758;28;20416;-51
2021/10/10 11:34:02;;;;;;;17.13;11.23;;;17.70;52.30;;;;;;5073056;28;20096;-49
2021/10/10 11:36:38;;;;;;;20.67;11.95;;;17.70;52.30;;;;;;5072934;28;20032;-50
2021/10/10 11:39:31;;;;;;;19.30;12.13;;;18.00;52.00;;;;;;5073140;28;20028;-49
2021/10/10 11:42:04;;;;;;;16.45;11.13;;;19.10;49.00;;;;;;5072577;28;20024;-49
2021/10/10 11:44:41;;;;;;;19.48;11.88;;;18.50;49.70;;;;;;5054425;28;20029;-50
2021/10/10 11:47:20;;;;;;;19.90;12.35;;;17.70;52.10;;;;;;5072585;28;20036;-49
2021/10/10 11:49:55;;;;;;;22.27;12.00;;;17.20;54.20;;;;;;5072781;28;20017;-48
2021/10/10 11:55:00;;;;;;;19.55;12.00;;;16.40;56.50;;;;;;5073022;28;20078;-52
2021/10/10 11:57:27;;;;;;;16.67;11.23;;;16.50;56.90;;;;;;5072848;28;20056;-51
2021/10/10 12:00:11;;;;;;;21.50;12.07;;;16.50;56.80;;;;;;5072620;28;20130;-50
2021/10/10 12:02:41;;;;;;;15.35;10.43;;;16.50;57.00;;;;;;5055402;28;20025;-49
2021/10/10 12:05:12;;;;;;;20.75;11.15;;;16.60;56.80;;;;;;5072327;28;20052;-50
2021/10/10 12:07:39;;;;;;;17.95;10.82;;;16.30;56.50;;;;;;5072356;28;20054;-48
2021/10/10 12:10:08;;;;;;;23.55;11.00;;;16.50;56.00;;;;;;5071918;28;20056;-49
2021/10/10 12:12:34;;;;;;;18.13;10.15;;;16.60;55.80;;;;;;5072361;28;20507;-49
2021/10/10 12:15:00;;;;;;;14.82;10.40;;;16.50;56.70;;;;;;5072226;28;20101;-49
2021/10/10 12:17:34;;;;;;;15.93;10.63;;;16.80;55.80;;;;;;5072017;28;20361;-47
2021/10/10 12:20:04;;;;;;;21.23;10.75;;;16.70;56.40;;;;;;5072455;28;20032;-48
2021/10/10 12:22:30;;;;;;;17.73;10.68;;;16.80;56.30;;;;;;5072305;28;20029;-48
2021/10/10 12:24:56;;;;;;;15.90;9.48;;;16.90;55.70;;;;;;5054165;28;20498;-49
2021/10/10 12:27:29;;;;;;;17.30;10.18;;;16.50;56.40;;;;;;5072223;28;20032;-49
2021/10/10 12:29:56;;;;;;;16.70;10.07;;;16.50;56.00;;;;;;5054431;28;20116;-49
2021/10/10 12:32:27;;;;;;;17.20;9.68;;;16.90;55.40;;;;;;5074104;28;20469;-51
2021/10/10 12:35:15;;;;;;;15.00;10.38;;;17.20;54.40;;;;;;5076021;28;20457;-48
2021/10/10 12:37:48;;;;;;;13.10;8.05;;;17.20;53.70;;;;;;5075972;28;20021;-48
2021/10/10 12:40:22;;;;;;;11.20;7.72;;;17.10;53.10;;;;;;5075561;28;20021;-48
2021/10/10 12:42:50;;;;;;;14.95;8.88;;;17.30;52.30;;;;;;5075483;28;20024;-48
2021/10/10 12:45:33;;;;;;;16.20;8.60;;;17.50;52.40;;;;;;5057580;28;20068;-49